createdAt,value
2018-05-23T00:01:56.157Z,209.23
2018-05-23T00:04:23.740Z,230.53
2018-05-23T00:06:51.371Z,252.37
2018-05-23T00:09:18.999Z,263.33
2018-05-23T00:11:46.586Z,272.97
2018-05-23T00:14:14.214Z,279.17
2018-05-23T00:16:41.794Z,287.00
2018-05-23T00:19:09.420Z,289.77
2018-05-23T00:21:36.997Z,294.50
2018-05-23T00:24:04.630Z,297.33
2018-05-23T00:26:32.206Z,290.90
2018-05-23T00:28:59.790Z,291.03
2018-05-23T00:31:28.177Z,301.70
2018-05-23T00:33:55.766Z,295.90
2018-05-23T00:36:23.392Z,298.23
2018-05-23T00:38:51.782Z,299.57
2018-05-23T00:41:19.373Z,303.97
2018-05-23T00:43:47.004Z,307.57
2018-05-23T00:46:14.617Z,297.70
2018-05-23T00:48:42.236Z,303.53
2018-05-23T00:51:09.825Z,307.60
2018-05-23T00:53:37.450Z,310.17
2018-05-23T00:56:05.037Z,308.90
2018-05-23T00:58:32.705Z,307.30
2018-05-23T01:01:00.269Z,298.93
2018-05-23T01:03:27.893Z,297.07
2018-05-23T01:05:55.477Z,300.80
2018-05-23T01:08:23.094Z,274.67
2018-05-23T01:10:50.689Z,254.63
2018-05-23T01:13:19.073Z,227.20
2018-05-23T01:15:47.417Z,196.37
2018-05-23T01:18:15.033Z,182.37
2018-05-23T01:20:42.623Z,164.27
2018-05-23T01:23:10.247Z,156.47
2018-05-23T01:25:37.831Z,150.93
2018-05-23T01:28:05.466Z,145.17
2018-05-23T01:30:33.065Z,159.23
2018-05-23T01:33:00.650Z,157.43
2018-05-23T01:35:28.274Z,154.93
2018-05-23T01:37:55.866Z,160.70
2018-05-23T01:40:23.490Z,161.90
2018-05-23T01:42:51.078Z,161.70
2018-05-23T01:45:18.723Z,155.07
2018-05-23T01:47:46.305Z,139.83
2018-05-23T01:50:13.885Z,142.47
2018-05-23T01:52:41.510Z,120.60
2018-05-23T01:55:09.088Z,118.67
2018-05-23T01:57:36.715Z,115.63
2018-05-23T02:00:04.349Z,120.03
2018-05-23T02:02:31.931Z,108.60
2018-05-23T02:04:59.560Z,100.03
2018-05-23T02:07:27.905Z,101.23
2018-05-23T02:09:55.486Z,106.80
2018-05-23T02:12:23.115Z,105.97
2018-05-23T02:14:50.704Z,99.40
2018-05-23T02:17:18.330Z,95.00
2018-05-23T02:19:45.916Z,96.73
2018-05-23T02:22:13.501Z,90.57
2018-05-23T02:24:41.119Z,83.97
2018-05-23T02:27:08.708Z,83.47
2018-05-23T02:29:36.326Z,82.00
2018-05-23T02:32:03.907Z,79.20
2018-05-23T02:34:31.534Z,79.87
2018-05-23T02:36:59.114Z,84.33
2018-05-23T02:39:26.704Z,78.07
2018-05-23T02:41:54.320Z,73.33
2018-05-23T02:44:21.893Z,76.17
2018-05-23T02:46:49.511Z,74.27
2018-05-23T02:49:17.098Z,82.03
2018-05-23T02:51:44.706Z,76.50
2018-05-23T02:54:12.320Z,79.07
2018-05-23T02:56:39.898Z,80.50
2018-05-23T02:59:07.513Z,80.33
2018-05-23T03:01:35.091Z,79.77
2018-05-23T03:04:02.711Z,89.10
2018-05-23T03:06:30.330Z,88.40
2018-05-23T03:08:57.909Z,83.90
2018-05-23T03:11:25.486Z,88.27
2018-05-23T03:13:53.101Z,88.63
2018-05-23T03:16:21.449Z,83.93
2018-05-23T03:18:49.026Z,87.47
2018-05-23T03:21:16.649Z,94.80
2018-05-23T03:23:44.262Z,88.47
2018-05-23T03:26:11.846Z,91.20
2018-05-23T03:28:39.462Z,95.53
2018-05-23T03:31:07.040Z,91.70
2018-05-23T03:33:35.394Z,95.93
2018-05-23T03:36:03.010Z,96.20
2018-05-23T03:38:30.598Z,98.80
2018-05-23T03:40:58.476Z,94.03
2018-05-23T03:43:26.330Z,90.57
2018-05-23T03:45:53.949Z,92.60
2018-05-23T03:48:21.538Z,93.53
2018-05-23T03:50:49.126Z,95.23
2018-05-23T03:53:16.749Z,98.00
2018-05-23T03:55:44.331Z,95.07
2018-05-23T03:58:11.910Z,91.50
2018-05-23T04:00:51.265Z,92.27
2018-05-23T04:03:30.515Z,91.67
2018-05-23T04:09:04.647Z,89.37
2018-05-23T04:11:32.272Z,88.07
2018-05-23T04:13:59.849Z,84.63
2018-05-23T04:16:27.466Z,88.53
2018-05-23T04:18:55.055Z,87.23
2018-05-23T04:21:22.674Z,85.33
2018-05-23T04:23:51.024Z,85.40
2018-05-23T04:26:18.642Z,86.93
2018-05-23T04:28:46.225Z,82.67
2018-05-23T04:31:13.868Z,87.53
2018-05-23T04:33:41.498Z,86.03
2018-05-23T04:36:09.847Z,82.53
2018-05-23T04:38:37.466Z,80.43
2018-05-23T04:41:05.054Z,74.97
2018-05-23T04:43:32.687Z,79.10
2018-05-23T04:46:00.264Z,76.13
2018-05-23T04:48:27.891Z,80.77
2018-05-23T04:50:55.540Z,70.67
2018-05-23T04:53:23.886Z,77.57
2018-05-23T04:55:51.468Z,70.53
2018-05-23T04:58:19.084Z,69.13
2018-05-23T05:00:46.657Z,58.53
2018-05-23T05:03:14.281Z,57.30
2018-05-23T05:05:41.874Z,62.77
2018-05-23T05:08:09.467Z,60.47
2018-05-23T05:10:37.100Z,61.73
2018-05-23T05:13:04.686Z,61.57
2018-05-23T05:15:32.274Z,70.47
2018-05-23T05:18:00.660Z,70.20
2018-05-23T05:20:28.246Z,64.97
2018-05-23T05:22:55.872Z,60.90
2018-05-23T05:25:24.222Z,73.97
2018-05-23T05:27:51.879Z,76.33
2018-05-23T05:30:19.458Z,67.77
2018-05-23T05:32:47.041Z,66.23
2018-05-23T05:35:14.666Z,76.20
2018-05-23T05:37:42.240Z,72.77
2018-05-23T05:40:09.821Z,73.73
2018-05-23T05:42:37.438Z,82.00
2018-05-23T05:45:05.018Z,79.20
2018-05-23T05:47:32.642Z,66.73
2018-05-23T05:50:00.222Z,50.20
2018-05-23T05:52:27.809Z,56.60
2018-05-23T05:54:55.421Z,55.17
2018-05-23T05:57:23.085Z,53.23
2018-05-23T05:59:51.365Z,48.63
2018-05-23T06:02:19.648Z,48.23
2018-05-23T06:04:47.366Z,47.50
2018-05-23T06:07:15.002Z,46.63
2018-05-23T06:09:44.370Z,44.23
2018-05-23T06:12:11.969Z,42.17
2018-05-23T06:14:39.597Z,52.53
2018-05-23T06:17:07.173Z,46.67
2018-05-23T06:19:35.521Z,44.77
2018-05-23T06:22:03.138Z,51.40
2018-05-23T06:24:32.111Z,52.73
2018-05-23T06:27:00.455Z,52.37
2018-05-23T06:29:28.278Z,49.43
2018-05-23T06:31:55.974Z,65.73
2018-05-23T06:34:23.960Z,69.73
2018-05-23T06:36:52.837Z,70.73
2018-05-23T06:39:20.730Z,55.83
2018-05-23T06:41:48.473Z,47.70
2018-05-23T06:44:16.610Z,39.60
2018-05-23T06:46:45.717Z,43.07
2018-05-23T06:49:13.392Z,38.43
2018-05-23T06:51:41.047Z,38.87
2018-05-23T06:54:08.661Z,42.27
2018-05-23T06:56:36.381Z,50.50
2018-05-23T06:59:04.816Z,58.17
2018-05-23T07:01:33.998Z,53.00
2018-05-23T07:04:02.058Z,63.23
2018-05-23T07:06:33.980Z,56.03
2018-05-23T07:09:01.778Z,87.63
2018-05-23T07:11:30.343Z,76.93
2018-05-23T07:13:58.175Z,57.83
2018-05-23T07:16:27.719Z,100.97
2018-05-23T07:18:55.603Z,111.47
2018-05-23T07:21:23.283Z,116.03
2018-05-23T07:23:50.917Z,97.60
2018-05-23T07:26:18.528Z,128.50
2018-05-23T07:28:46.149Z,127.43
2018-05-23T07:31:13.731Z,119.53
2018-05-23T07:33:41.351Z,122.63
2018-05-23T07:36:08.957Z,134.87
2018-05-23T07:38:36.576Z,127.87
2018-05-23T07:41:04.178Z,119.57
2018-05-23T07:43:32.011Z,143.73
2018-05-23T07:45:59.729Z,106.97
2018-05-23T07:48:27.249Z,150.60
2018-05-23T07:50:54.874Z,134.23
2018-05-23T07:53:22.469Z,147.70
2018-05-23T07:55:50.055Z,131.07
2018-05-23T07:58:17.676Z,147.83
2018-05-23T08:00:46.024Z,152.93
2018-05-23T08:03:13.651Z,164.47
2018-05-23T08:05:41.228Z,167.03
2018-05-23T08:08:08.858Z,156.80
2018-05-23T08:10:36.445Z,156.80
2018-05-23T08:13:04.079Z,157.87
2018-05-23T08:15:31.662Z,152.93
2018-05-23T08:17:59.250Z,160.47
2018-05-23T08:20:26.873Z,154.30
2018-05-23T08:22:54.497Z,148.47
2018-05-23T08:25:22.132Z,146.57
2018-05-23T08:27:49.720Z,147.87
2018-05-23T08:30:17.347Z,144.73
2018-05-23T08:32:44.973Z,144.10
2018-05-23T08:35:12.558Z,141.77
2018-05-23T08:37:40.168Z,131.07
2018-05-23T08:40:07.784Z,111.30
2018-05-23T08:42:35.434Z,106.40
2018-05-23T08:45:03.019Z,87.50
2018-05-23T08:47:30.621Z,83.40
2018-05-23T08:49:58.237Z,67.10
2018-05-23T08:52:25.876Z,59.87
2018-05-23T08:54:53.483Z,46.80
2018-05-23T08:57:21.098Z,50.27
2018-05-23T08:59:48.680Z,30.30
2018-05-23T09:02:16.253Z,30.67
2018-05-23T09:04:43.909Z,28.40
2018-05-23T09:07:11.477Z,23.90
2018-05-23T09:09:39.112Z,24.80
2018-05-23T09:12:06.800Z,22.30
2018-05-23T09:14:34.281Z,19.17
2018-05-23T09:17:01.972Z,17.37
2018-05-23T09:19:29.544Z,18.17
2018-05-23T09:21:57.120Z,17.37
2018-05-23T09:24:24.736Z,17.57
2018-05-23T09:26:52.307Z,17.80
2018-05-23T09:29:20.699Z,17.90
2018-05-23T09:31:48.283Z,18.00
2018-05-23T09:34:15.896Z,18.40
2018-05-23T09:36:44.251Z,17.73
2018-05-23T09:39:11.964Z,17.90
2018-05-23T09:41:39.474Z,17.17
2018-05-23T09:44:07.089Z,17.93
2018-05-23T09:46:34.663Z,18.50
2018-05-23T09:49:02.288Z,18.93
2018-05-23T09:51:29.874Z,18.67
2018-05-23T09:53:57.458Z,19.17
2018-05-23T09:56:25.083Z,18.63
2018-05-23T09:58:52.714Z,18.27
2018-05-23T10:01:20.289Z,18.47
2018-05-23T10:03:47.875Z,17.13
2018-05-23T10:06:15.491Z,17.13
2018-05-23T10:08:43.066Z,17.60
2018-05-23T10:11:11.464Z,16.77
2018-05-23T10:13:39.800Z,16.67
2018-05-23T10:16:07.415Z,18.47
2018-05-23T10:18:34.986Z,18.50
2018-05-23T10:21:02.605Z,17.97
2018-05-23T10:23:30.201Z,18.40
2018-05-23T10:25:57.825Z,19.77
2018-05-23T10:28:25.401Z,20.93
2018-05-23T10:30:52.981Z,17.67
2018-05-23T10:33:20.615Z,18.17
2018-05-23T10:35:48.209Z,18.10
2018-05-23T10:38:15.832Z,16.73
2018-05-23T10:40:44.059Z,16.70
2018-05-23T10:43:12.126Z,16.97
2018-05-23T10:45:39.752Z,17.30
2018-05-23T10:48:07.363Z,16.43
2018-05-23T10:50:34.964Z,17.30
2018-05-23T10:53:03.816Z,16.37
2018-05-23T10:55:32.308Z,16.73
2018-05-23T10:58:00.543Z,18.77
2018-05-23T11:00:28.337Z,18.67
2018-05-23T11:02:57.019Z,18.63
2018-05-23T11:05:24.841Z,19.00
2018-05-23T11:07:52.497Z,18.60
2018-05-23T11:10:20.508Z,19.40
2018-05-23T11:12:48.589Z,18.73
2018-05-23T11:15:18.189Z,18.50
2018-05-23T11:17:46.405Z,19.30
2018-05-23T11:20:14.386Z,18.33
2018-05-23T11:22:42.664Z,19.97
2018-05-23T11:25:10.351Z,19.90
2018-05-23T11:27:39.593Z,18.23
2018-05-23T11:30:07.323Z,20.80
2018-05-23T11:32:34.964Z,20.00
2018-05-23T11:35:02.985Z,19.43
2018-05-23T11:37:30.694Z,19.80
2018-05-23T11:39:58.658Z,17.73
2018-05-23T11:42:26.419Z,18.90
2018-05-23T11:44:54.967Z,18.67
2018-05-23T11:47:22.855Z,16.20
2018-05-23T11:49:52.261Z,15.07
2018-05-23T11:52:24.144Z,15.37
2018-05-23T11:54:53.374Z,15.63
2018-05-23T11:57:22.775Z,17.77
2018-05-23T11:59:50.722Z,17.13
2018-05-23T12:02:19.763Z,17.77
2018-05-23T12:04:47.997Z,17.10
2018-05-23T12:07:16.162Z,16.03
2018-05-23T12:09:45.505Z,15.97
2018-05-23T12:12:14.053Z,16.63
2018-05-23T12:14:42.121Z,16.73
2018-05-23T12:17:10.109Z,16.07
2018-05-23T12:19:38.728Z,16.13
2018-05-23T12:22:06.922Z,23.07
2018-05-23T12:24:35.730Z,26.57
2018-05-23T12:27:06.477Z,23.73
2018-05-23T12:29:34.917Z,22.60
2018-05-23T12:32:02.941Z,21.33
2018-05-23T12:34:31.063Z,27.40
2018-05-23T12:36:59.134Z,23.50
2018-05-23T12:39:28.619Z,21.90
2018-05-23T12:41:56.600Z,19.80
2018-05-23T12:44:26.026Z,21.47
2018-05-23T12:46:55.121Z,17.57
2018-05-23T12:49:24.072Z,20.77
2018-05-23T12:51:52.519Z,25.63
2018-05-23T12:54:21.477Z,24.00
2018-05-23T12:56:50.148Z,20.80
2018-05-23T12:59:20.984Z,20.77
2018-05-23T13:01:49.072Z,25.03
2018-05-23T13:04:17.246Z,27.77
2018-05-23T13:06:46.974Z,24.93
2018-05-23T13:09:15.859Z,23.87
2018-05-23T13:11:44.401Z,22.90
2018-05-23T13:14:14.433Z,23.90
2018-05-23T13:16:43.546Z,28.57
2018-05-23T13:19:13.568Z,31.70
2018-05-23T13:21:45.122Z,32.10
2018-05-23T13:24:14.881Z,32.47
2018-05-23T13:26:44.550Z,31.10
2018-05-23T13:29:13.556Z,27.47
2018-05-23T13:31:41.775Z,20.87
2018-05-23T13:34:09.940Z,21.70
2018-05-23T13:36:40.341Z,18.27
2018-05-23T13:39:09.014Z,16.50
2018-05-23T13:41:40.017Z,18.87
2018-05-23T13:44:09.290Z,19.87
2018-05-23T13:46:37.569Z,23.87
2018-05-23T13:49:06.384Z,24.93
2018-05-23T13:51:35.326Z,25.97
2018-05-23T13:54:05.217Z,22.80
2018-05-23T13:56:33.951Z,23.83
2018-05-23T13:59:02.087Z,20.83
2018-05-23T14:01:30.066Z,22.33
2018-05-23T14:03:58.532Z,26.00
2018-05-23T14:06:26.940Z,32.87
2018-05-23T14:08:55.075Z,35.13
2018-05-23T14:11:23.207Z,39.23
2018-05-23T14:13:51.402Z,37.80
2018-05-23T14:16:19.892Z,40.60
2018-05-23T14:18:48.117Z,40.47
2018-05-23T14:23:48.527Z,39.87
2018-05-23T14:26:16.628Z,41.53
2018-05-23T14:28:45.597Z,40.57
2018-05-23T14:31:13.787Z,40.03
2018-05-23T14:33:41.896Z,36.00
2018-05-23T14:36:10.057Z,36.37
2018-05-23T14:38:38.262Z,36.70
2018-05-23T14:41:08.832Z,31.87
2018-05-23T14:43:37.949Z,25.23
2018-05-23T14:46:06.649Z,24.80
2018-05-23T14:48:34.797Z,28.20
2018-05-23T14:51:03.979Z,24.37
2018-05-23T14:53:32.077Z,22.77
2018-05-23T14:56:00.741Z,19.53
2018-05-23T14:58:28.779Z,20.23
2018-05-23T15:00:56.968Z,18.43
2018-05-23T15:03:25.110Z,17.87
2018-05-23T15:05:53.714Z,20.53
2018-05-23T15:08:21.807Z,18.17
2018-05-23T15:10:50.059Z,16.30
2018-05-23T15:13:18.170Z,15.40
2018-05-23T15:15:46.452Z,15.63
2018-05-23T15:18:14.633Z,15.53
2018-05-23T15:20:42.817Z,15.73
2018-05-23T15:23:11.747Z,14.60
2018-05-23T15:25:39.942Z,15.80
2018-05-23T15:28:08.155Z,16.13
2018-05-23T15:30:36.265Z,16.60
2018-05-23T15:33:05.009Z,18.03
2018-05-23T15:35:33.232Z,16.80
2018-05-23T15:38:01.399Z,15.93
2018-05-23T15:40:29.455Z,16.30
2018-05-23T15:42:57.555Z,16.77
2018-05-23T15:45:26.523Z,18.00
2018-05-23T15:47:54.566Z,19.20
2018-05-23T15:50:22.675Z,20.63
2018-05-23T15:52:50.767Z,20.33
2018-05-23T15:55:18.986Z,16.70
2018-05-23T15:57:48.081Z,17.33
2018-05-23T16:00:17.250Z,16.43
2018-05-23T16:02:45.405Z,15.80
2018-05-23T16:05:13.396Z,16.80
2018-05-23T16:07:41.416Z,15.43
2018-05-23T16:10:10.532Z,15.63
2018-05-23T16:12:38.576Z,16.10
2018-05-23T16:15:07.202Z,15.90
2018-05-23T16:17:35.383Z,16.47
2018-05-23T16:20:03.690Z,17.30
2018-05-23T16:22:31.321Z,18.63
2018-05-23T16:24:58.941Z,18.03
2018-05-23T16:27:26.522Z,16.50
2018-05-23T16:29:54.128Z,15.27
2018-05-23T16:32:21.738Z,15.20
2018-05-23T16:34:49.320Z,15.90
2018-05-23T16:37:17.712Z,15.73
2018-05-23T16:39:45.311Z,18.50
2018-05-23T16:42:12.881Z,18.80
2018-05-23T16:44:40.488Z,18.50
2018-05-23T16:47:08.060Z,18.60
2018-05-23T16:49:35.672Z,17.80
2018-05-23T16:52:03.275Z,17.63
2018-05-23T16:54:32.755Z,15.67
2018-05-23T16:57:00.330Z,16.77
2018-05-23T16:59:27.967Z,16.20
2018-05-23T17:01:55.573Z,16.50
2018-05-23T17:04:23.145Z,16.57
2018-05-23T17:06:50.759Z,15.80
2018-05-23T17:09:19.144Z,15.87
2018-05-23T17:11:47.494Z,15.30
2018-05-23T17:14:15.119Z,14.63
2018-05-23T17:16:42.693Z,15.83
2018-05-23T17:19:10.273Z,16.33
2018-05-23T17:21:37.885Z,16.60
2018-05-23T17:24:05.492Z,19.77
2018-05-23T17:26:33.105Z,19.70
2018-05-23T17:29:00.688Z,20.43
2018-05-23T17:31:28.366Z,20.03
2018-05-23T17:33:55.940Z,18.70
2018-05-23T17:36:23.519Z,18.13
2018-05-23T17:38:51.137Z,18.70
2018-05-23T17:41:18.719Z,19.37
2018-05-23T17:43:46.333Z,21.37
2018-05-23T17:46:13.922Z,19.90
2018-05-23T17:48:41.549Z,23.23
2018-05-23T17:51:09.156Z,23.03
2018-05-23T17:53:36.737Z,23.37
2018-05-23T17:56:04.350Z,22.63
2018-05-23T17:58:32.684Z,17.57
2018-05-23T18:01:00.261Z,14.73
2018-05-23T18:03:27.872Z,14.87
2018-05-23T18:05:55.594Z,14.40
2018-05-23T18:08:23.088Z,15.33
2018-05-23T18:10:50.660Z,14.27
2018-05-23T18:13:18.303Z,15.80
2018-05-23T18:15:45.881Z,14.50
2018-05-23T18:18:13.451Z,15.00
2018-05-23T18:20:41.078Z,15.33
2018-05-23T18:23:10.201Z,15.30
2018-05-23T18:25:37.822Z,16.10
2018-05-23T18:28:05.452Z,16.10
2018-05-23T18:30:33.032Z,16.23
2018-05-23T18:33:00.610Z,17.27
2018-05-23T18:35:28.230Z,18.47
2018-05-23T18:37:55.843Z,19.50
2018-05-23T18:40:23.424Z,20.53
2018-05-23T18:42:51.037Z,19.37
2018-05-23T18:45:18.621Z,20.60
2018-05-23T18:47:46.201Z,20.57
2018-05-23T18:50:13.806Z,20.17
2018-05-23T18:52:41.378Z,19.43
2018-05-23T18:55:09.001Z,18.30
2018-05-23T18:57:36.577Z,17.97
2018-05-23T19:00:04.153Z,17.33
2018-05-23T19:02:31.777Z,16.60
2018-05-23T19:04:59.364Z,16.57
2018-05-23T19:07:26.979Z,17.80
2018-05-23T19:09:54.564Z,18.97
2018-05-23T19:12:22.184Z,19.33
2018-05-23T19:14:49.808Z,19.43
2018-05-23T19:17:17.425Z,20.30
2018-05-23T19:19:45.056Z,20.00
2018-05-23T19:22:12.648Z,18.87
2018-05-23T19:24:40.266Z,19.03
2018-05-23T19:27:07.885Z,18.60
2018-05-23T19:29:35.506Z,18.80
2018-05-23T19:32:03.079Z,19.17
2018-05-23T19:34:30.764Z,17.50
2018-05-23T19:36:58.373Z,17.20
2018-05-23T19:39:25.990Z,16.97
2018-05-23T19:41:53.574Z,17.80
2018-05-23T19:44:21.185Z,18.33
2018-05-23T19:46:48.756Z,17.17
2018-05-23T19:49:16.381Z,16.77
2018-05-23T19:51:43.955Z,16.57
2018-05-23T19:54:11.545Z,16.47
2018-05-23T19:56:40.013Z,17.33
2018-05-23T19:59:07.544Z,16.60
2018-05-23T20:01:35.166Z,16.77
2018-05-23T20:04:02.760Z,16.80
2018-05-23T20:06:30.376Z,17.30
2018-05-23T20:08:58.725Z,17.80
2018-05-23T20:11:26.352Z,18.37
2018-05-23T20:13:53.976Z,18.73
2018-05-23T20:16:21.538Z,18.53
2018-05-23T20:18:49.159Z,20.20
2018-05-23T20:21:16.771Z,21.10
2018-05-23T20:23:44.391Z,22.00
2018-05-23T20:26:12.007Z,21.77
2018-05-23T20:28:39.585Z,23.53
2018-05-23T20:31:07.205Z,24.20
2018-05-23T20:33:34.789Z,25.53
2018-05-23T20:36:02.409Z,26.80
2018-05-23T20:38:29.992Z,26.47
2018-05-23T20:40:57.566Z,26.83
2018-05-23T20:43:25.190Z,26.23
2018-05-23T20:45:52.773Z,26.93
2018-05-23T20:48:21.169Z,27.13
2018-05-23T20:50:48.757Z,27.70
2018-05-23T20:53:16.334Z,28.03
2018-05-23T20:55:43.956Z,29.37
2018-05-23T20:58:11.573Z,30.57
2018-05-23T21:00:39.145Z,30.50
2018-05-23T21:03:06.796Z,30.77
2018-05-23T21:05:34.437Z,30.43
2018-05-23T21:08:01.986Z,31.30
2018-05-23T21:10:29.602Z,33.57
2018-05-23T21:12:57.494Z,32.90
2018-05-23T21:15:25.588Z,33.23
2018-05-23T21:17:53.217Z,36.43
2018-05-23T21:20:27.098Z,37.77
2018-05-23T21:22:56.608Z,42.37
2018-05-23T21:25:24.226Z,47.07
2018-05-23T21:27:52.989Z,50.33
2018-05-23T21:30:23.293Z,51.93
2018-05-23T21:32:51.740Z,53.03
2018-05-23T21:35:20.627Z,53.90
2018-05-23T21:37:48.245Z,54.03
2018-05-23T21:40:16.687Z,53.20
2018-05-23T21:42:44.308Z,52.57
2018-05-23T21:45:11.884Z,54.37
2018-05-23T21:47:39.498Z,55.37
2018-05-23T21:50:08.232Z,55.17
2018-05-23T21:52:36.263Z,57.70
2018-05-23T21:55:03.925Z,49.43
2018-05-23T21:57:31.572Z,48.90
2018-05-23T21:59:59.508Z,41.13
2018-05-23T22:02:27.312Z,39.73
2018-05-23T22:04:54.953Z,37.67
2018-05-23T22:07:22.534Z,33.90
2018-05-23T22:09:50.208Z,31.83
2018-05-23T22:12:18.617Z,32.33
2018-05-23T22:14:46.217Z,31.70
2018-05-23T22:17:13.829Z,31.87
2018-05-23T22:19:41.408Z,31.40
2018-05-23T22:22:09.223Z,30.43
2018-05-23T22:24:37.584Z,32.83
2018-05-23T22:27:06.136Z,33.80
2018-05-23T22:29:33.795Z,35.63
2018-05-23T22:32:01.369Z,37.30
2018-05-23T22:34:28.979Z,38.03
2018-05-23T22:36:56.575Z,40.80
2018-05-23T22:39:26.662Z,41.57
2018-05-23T22:41:54.304Z,42.43
2018-05-23T22:44:21.885Z,44.03
2018-05-23T22:46:49.460Z,47.33
2018-05-23T22:49:17.073Z,46.73
2018-05-23T22:51:44.647Z,48.47
2018-05-23T22:54:12.262Z,52.27
2018-05-23T22:56:39.831Z,55.37
2018-05-23T22:59:07.445Z,57.27
2018-05-23T23:01:35.060Z,58.20
2018-05-23T23:04:02.673Z,59.00
2018-05-23T23:06:30.240Z,63.80
2018-05-23T23:08:57.858Z,63.60
2018-05-23T23:11:25.434Z,62.40
2018-05-23T23:13:53.053Z,63.43
2018-05-23T23:16:20.635Z,66.43
2018-05-23T23:18:48.217Z,66.87
2018-05-23T23:21:15.835Z,69.73
2018-05-23T23:23:43.403Z,68.30
2018-05-23T23:26:10.989Z,65.57
2018-05-23T23:28:38.600Z,67.63
2018-05-23T23:31:06.211Z,68.23
2018-05-23T23:33:33.786Z,70.40
2018-05-23T23:36:01.397Z,72.30
2018-05-23T23:38:29.010Z,70.13
2018-05-23T23:40:56.588Z,72.10
2018-05-23T23:43:24.972Z,70.17
2018-05-23T23:45:53.356Z,68.63
2018-05-23T23:48:20.953Z,68.00
2018-05-23T23:50:48.553Z,73.07
2018-05-23T23:53:16.171Z,69.03
2018-05-23T23:55:43.744Z,70.03
2018-05-23T23:58:11.358Z,69.87
